Duluth, Kansas
Current Conditions -  °F | °C
As of 1:52 AM on Saturday 29 Nov 2014 (Local Time) from KMHK Reporting Station
Clear Clear  
Wind Chill: 41°   Ceiling: Unl
Heat Index: 45°   Visibility: 10mi
Dew Point: 39°   Wind: 8mph
Humidity: 80%   Direction: 220°SW
Pressure: 29.68"   Gusts: NA
Location:  39.4299°N, 96.1804°W
Report Text: KMHK 290752Z AUTO 22007KT 10SM CLR 07/04 A2968 RMK AO2 SLP048 T00720039 TSNO
Loading
Personal Weather Stations






























Interactive Weather Map New forecast layout! Learn more

10-Day Weather Forecast

Advertisements
Track Severe Weather on mobile